Time;durP1;ratioP1;P1;durP2;ratioP2;P2;SDS_P1;SDS_P2;PMS_P1;PMS_P2;Temp;Humidity;BMP_temperature;BMP_pressure;BME280_temperature;BME280_humidity;BME280_pressure;Samples;Min_cycle;Max_cycle;Signal;HPM_P1;HPM_P2
2023/03/19 00:01:25;;;;;;;;;;;10.80;99.90;;;;;;4953258;29;19922;-71
2023/03/19 00:03:51;;;;;;;;;;;10.80;99.90;;;;;;4938140;29;19922;-72
2023/03/19 00:06:17;;;;;;;;;;;10.70;99.90;;;;;;4937976;29;20370;-71
2023/03/19 00:08:43;;;;;;;;;;;10.80;99.90;;;;;;4953281;29;19973;-71
2023/03/19 00:11:09;;;;;;;;;;;10.80;99.90;;;;;;4953718;28;19993;-71
2023/03/19 00:13:35;;;;;;;;;;;10.70;99.90;;;;;;4954143;29;19929;-72
2023/03/19 00:16:00;;;;;;;;;;;10.80;99.90;;;;;;4954754;29;20366;-71
2023/03/19 00:18:26;;;;;;;;;;;10.60;99.90;;;;;;4954670;29;20482;-71
2023/03/19 00:20:51;;;;;;;;;;;10.50;99.90;;;;;;4954426;29;19922;-71
2023/03/19 00:23:17;;;;;;;;;;;10.50;99.90;;;;;;4955387;29;19929;-71
2023/03/19 00:25:42;;;;;;;;;;;10.00;99.90;;;;;;4955287;29;19918;-71
2023/03/19 00:28:08;;;;;;;;;;;10.80;99.90;;;;;;4953662;29;19929;-71
2023/03/19 00:30:34;;;;;;;;;;;10.50;99.90;;;;;;4953269;28;19922;-71
2023/03/19 00:33:00;;;;;;;;;;;10.60;99.90;;;;;;4953646;29;19922;-71
2023/03/19 00:35:25;;;;;;;;;;;10.50;99.90;;;;;;4954066;29;19929;-71
2023/03/19 00:37:51;;;;;;;;;;;10.40;99.90;;;;;;4954938;29;19919;-70
2023/03/19 00:40:17;;;;;;;;;;;10.50;99.90;;;;;;4955257;29;19926;-71
2023/03/19 00:42:43;;;;;;;;;;;10.50;99.90;;;;;;4952722;29;19922;-71
2023/03/19 00:45:09;;;;;;;;;;;10.60;99.90;;;;;;4953586;29;19925;-71
2023/03/19 00:47:35;;;;;;;;;;;10.50;99.90;;;;;;4953323;29;19929;-71
2023/03/19 00:50:01;;;;;;;;;;;10.40;99.90;;;;;;4953114;29;20293;-71
2023/03/19 00:52:26;;;;;;;;;;;10.40;99.90;;;;;;4954070;29;19969;-71
2023/03/19 00:54:52;;;;;;;;;;;10.30;99.90;;;;;;4953611;29;19922;-71
2023/03/19 00:57:18;;;;;;;;;;;10.50;99.90;;;;;;4953074;29;19919;-71
2023/03/19 00:59:43;;;;;;;;;;;10.50;99.90;;;;;;4953427;29;19930;-71
2023/03/19 01:02:09;;;;;;;;;;;10.40;99.90;;;;;;4954857;29;19922;-71
2023/03/19 01:04:35;;;;;;;;;;;10.50;99.90;;;;;;4952645;29;19945;-71
2023/03/19 01:07:00;;;;;;;;;;;10.50;99.90;;;;;;4952945;29;20318;-71
2023/03/19 01:09:26;;;;;;;;;;;10.40;99.90;;;;;;4953190;29;19944;-71
2023/03/19 01:11:51;;;;;;;;;;;10.30;99.90;;;;;;4952470;29;19929;-71
2023/03/19 01:14:17;;;;;;;;;;;10.30;99.90;;;;;;4937437;29;20401;-71
2023/03/19 01:16:42;;;;;;;;;;;10.90;99.90;;;;;;4953426;29;20025;-71
2023/03/19 01:19:08;;;;;;;;;;;10.30;99.90;;;;;;4953659;29;19928;-70
2023/03/19 01:21:35;;;;;;;;;;;10.20;99.90;;;;;;4954587;28;19929;-71
2023/03/19 01:24:00;;;;;;;;;;;10.20;99.90;;;;;;4958083;29;19918;-71
2023/03/19 01:26:26;;;;;;;;;;;10.30;99.90;;;;;;4955894;29;20454;-71
2023/03/19 01:28:52;;;;;;;;;;;10.20;99.90;;;;;;4941065;29;20013;-71
2023/03/19 01:31:18;;;;;;;;;;;10.20;99.90;;;;;;4957525;29;20013;-71
2023/03/19 01:33:43;;;;;;;;;;;10.20;99.90;;;;;;4956473;29;19926;-71
2023/03/19 01:36:10;;;;;;;;;;;10.30;99.90;;;;;;4957270;29;19976;-71
2023/03/19 01:38:35;;;;;;;;;;;10.30;99.90;;;;;;4940031;29;19923;-71
2023/03/19 01:41:01;;;;;;;;;;;10.20;99.90;;;;;;4940588;29;19929;-71
2023/03/19 01:43:27;;;;;;;;;;;10.20;99.90;;;;;;4957908;29;19953;-71
2023/03/19 01:46:04;;;;;;;;;;;10.20;99.90;;;;;;4940282;29;19927;-71
2023/03/19 01:48:38;;;;;;;;;;;10.20;99.90;;;;;;4957377;29;19926;-71
2023/03/19 01:51:06;;;;;;;;;;;10.20;99.90;;;;;;4957856;29;19922;-71
2023/03/19 01:53:32;;;;;;;;;;;10.20;99.90;;;;;;4956107;29;20022;-71
2023/03/19 01:56:21;;;;;;;;;;;10.20;99.90;;;;;;4957657;29;20009;-71
2023/03/19 01:58:48;;;;;;;;;;;10.20;99.90;;;;;;4952131;29;19926;-71
2023/03/19 02:01:14;;;;;;;;;;;10.20;99.90;;;;;;4955946;29;20286;-71
2023/03/19 02:03:41;;;;;;;;;;;10.20;99.90;;;;;;4957259;29;19922;-72
2023/03/19 02:06:07;;;;;;;;;;;10.20;99.90;;;;;;4956425;29;20009;-71
2023/03/19 02:08:34;;;;;;;;;;;10.30;99.90;;;;;;4956807;29;19922;-71
2023/03/19 02:11:00;;;;;;;;;;;10.20;99.90;;;;;;4956043;29;19948;-71
2023/03/19 02:13:26;;;;;;;;;;;10.20;99.90;;;;;;4939757;29;20058;-71
2023/03/19 02:15:53;;;;;;;;;;;10.30;99.90;;;;;;4940191;29;19970;-71
2023/03/19 02:18:18;;;;;;;;;;;10.20;99.90;;;;;;4939727;29;20362;-71
2023/03/19 02:20:44;;;;;;;;;;;10.20;99.90;;;;;;4956904;29;20013;-71
2023/03/19 02:23:09;;;;;;;;;;;10.10;99.90;;;;;;4955297;29;19972;-71
2023/03/19 02:25:47;;;;;;;;;;;10.10;99.90;;;;;;4957211;29;20021;-71
2023/03/19 02:28:17;;;;;;;;;;;10.10;99.90;;;;;;4955721;29;19993;-71
2023/03/19 02:30:43;;;;;;;;;;;10.20;99.90;;;;;;4955638;29;19970;-71
2023/03/19 02:33:11;;;;;;;;;;;10.20;99.90;;;;;;4957072;28;20366;-71
2023/03/19 02:35:37;;;;;;;;;;;10.10;99.90;;;;;;4956785;29;19926;-71
2023/03/19 02:38:04;;;;;;;;;;;10.10;99.90;;;;;;4956491;29;19930;-71
2023/03/19 02:40:31;;;;;;;;;;;10.00;99.90;;;;;;4956640;29;19922;-71
2023/03/19 02:42:57;;;;;;;;;;;10.00;99.90;;;;;;4971043;28;19926;-71
2023/03/19 02:45:26;;;;;;;;;;;9.90;99.90;;;;;;4956574;29;20437;-71
2023/03/19 02:47:52;;;;;;;;;;;10.00;99.90;;;;;;4957025;29;19922;-71
2023/03/19 02:50:17;;;;;;;;;;;9.90;99.90;;;;;;4954729;29;19933;-71
2023/03/19 02:52:43;;;;;;;;;;;9.80;99.90;;;;;;4939141;29;20306;-71
2023/03/19 02:55:08;;;;;;;;;;;9.80;99.90;;;;;;4939726;29;20032;-71
2023/03/19 02:57:34;;;;;;;;;;;9.80;99.90;;;;;;4955683;29;19990;-71
2023/03/19 03:00:00;;;;;;;;;;;10.60;99.90;;;;;;4956290;29;20016;-71
2023/03/19 03:02:26;;;;;;;;;;;9.80;99.90;;;;;;4956509;29;19922;-71
2023/03/19 03:04:51;;;;;;;;;;;9.80;99.90;;;;;;4955630;29;19922;-71
2023/03/19 03:07:17;;;;;;;;;;;10.10;99.90;;;;;;4939594;29;20286;-71
2023/03/19 03:09:42;;;;;;;;;;;9.80;99.90;;;;;;4955844;29;20363;-71
2023/03/19 03:12:08;;;;;;;;;;;9.80;99.90;;;;;;4956287;29;20017;-71
2023/03/19 03:14:34;;;;;;;;;;;9.90;99.90;;;;;;4938626;29;19922;-71
2023/03/19 03:16:59;;;;;;;;;;;9.80;99.90;;;;;;4955805;29;19934;-71
2023/03/19 03:19:25;;;;;;;;;;;9.70;99.90;;;;;;4955888;29;19922;-71
2023/03/19 03:21:50;;;;;;;;;;;9.60;99.90;;;;;;4939444;29;19923;-71
2023/03/19 03:24:16;;;;;;;;;;;9.80;99.90;;;;;;4955627;29;19969;-71
2023/03/19 03:26:43;;;;;;;;;;;9.50;99.90;;;;;;4938233;29;19958;-71
2023/03/19 03:29:08;;;;;;;;;;;9.40;99.90;;;;;;4955932;29;19923;-71
2023/03/19 03:31:34;;;;;;;;;;;9.50;99.90;;;;;;4955163;29;19970;-71
2023/03/19 03:34:00;;;;;;;;;;;9.50;99.90;;;;;;4938587;29;19926;-71
2023/03/19 03:36:26;;;;;;;;;;;9.60;99.90;;;;;;4938759;29;19918;-71
2023/03/19 03:38:52;;;;;;;;;;;9.40;99.90;;;;;;4955537;29;19926;-71
2023/03/19 03:41:18;;;;;;;;;;;9.40;99.90;;;;;;4937680;29;19929;-71
2023/03/19 03:43:43;;;;;;;;;;;9.30;99.90;;;;;;4955743;29;19922;-71
2023/03/19 03:46:09;;;;;;;;;;;10.10;99.90;;;;;;4937551;29;19923;-71
2023/03/19 03:48:34;;;;;;;;;;;9.30;99.90;;;;;;4955564;29;19926;-70
2023/03/19 03:51:00;;;;;;;;;;;10.00;99.90;;;;;;4938361;29;20393;-70
2023/03/19 03:53:26;;;;;;;;;;;9.10;99.90;;;;;;4937270;29;19934;-71
2023/03/19 03:55:51;;;;;;;;;;;9.00;99.90;;;;;;4938295;29;19918;-70
2023/03/19 03:58:17;;;;;;;;;;;9.10;99.90;;;;;;4955412;29;20401;-71
2023/03/19 04:00:42;;;;;;;;;;;8.90;99.90;;;;;;4954896;29;20282;-71
2023/03/19 04:03:09;;;;;;;;;;;8.90;99.90;;;;;;4938672;29;19974;-71
2023/03/19 04:05:35;;;;;;;;;;;8.80;99.90;;;;;;4954347;29;19922;-71
2023/03/19 04:08:02;;;;;;;;;;;9.40;99.90;;;;;;4954616;29;20453;-71
2023/03/19 04:10:27;;;;;;;;;;;8.70;99.90;;;;;;4955217;29;20375;-71
2023/03/19 04:12:53;;;;;;;;;;;8.60;99.90;;;;;;4955461;29;19990;-71
2023/03/19 04:15:19;;;;;;;;;;;8.80;99.90;;;;;;4954148;29;19925;-71
2023/03/19 04:17:44;;;;;;;;;;;8.60;99.90;;;;;;4955373;29;20005;-71
2023/03/19 04:20:11;;;;;;;;;;;8.50;99.90;;;;;;4954830;29;20326;-71
2023/03/19 04:22:36;;;;;;;;;;;8.40;99.90;;;;;;4937562;29;19926;-70
2023/03/19 04:25:03;;;;;;;;;;;9.30;99.90;;;;;;4955138;29;19922;-71
2023/03/19 04:27:29;;;;;;;;;;;8.30;99.90;;;;;;4937323;29;19925;-70
2023/03/19 04:29:55;;;;;;;;;;;9.00;99.90;;;;;;4954733;29;19923;-71
2023/03/19 04:32:20;;;;;;;;;;;8.30;99.90;;;;;;4937961;29;19922;-70
2023/03/19 04:34:47;;;;;;;;;;;8.30;99.90;;;;;;4954057;29;19922;-71
2023/03/19 04:37:12;;;;;;;;;;;9.10;99.90;;;;;;4937672;29;20366;-70
2023/03/19 04:39:38;;;;;;;;;;;8.30;99.90;;;;;;4937739;29;19929;-71
2023/03/19 04:42:03;;;;;;;;;;;8.20;99.90;;;;;;4937209;29;19922;-71
2023/03/19 04:44:29;;;;;;;;;;;8.20;99.90;;;;;;4954678;29;19922;-71
2023/03/19 04:46:55;;;;;;;;;;;8.20;99.90;;;;;;4955124;29;20260;-70
2023/03/19 04:49:21;;;;;;;;;;;8.10;99.90;;;;;;4953578;29;19977;-70
2023/03/19 04:51:46;;;;;;;;;;;8.50;99.90;;;;;;4937612;29;19926;-71
2023/03/19 04:54:12;;;;;;;;;;;8.80;99.90;;;;;;4955117;29;19926;-71
2023/03/19 04:56:38;;;;;;;;;;;8.00;99.90;;;;;;4936765;29;19926;-71
2023/03/19 04:59:03;;;;;;;;;;;7.90;99.90;;;;;;4958422;29;19922;-71
2023/03/19 05:01:29;;;;;;;;;;;7.90;99.90;;;;;;4941502;29;19929;-71
2023/03/19 05:03:54;;;;;;;;;;;8.30;99.90;;;;;;4957811;29;20022;-71
2023/03/19 05:06:20;;;;;;;;;;;8.10;99.90;;;;;;4940673;29;20009;-71
2023/03/19 05:08:46;;;;;;;;;;;7.90;99.90;;;;;;4941761;29;20017;-71
2023/03/19 05:11:11;;;;;;;;;;;8.10;99.90;;;;;;4957814;29;20394;-71
2023/03/19 05:13:37;;;;;;;;;;;8.00;99.90;;;;;;4958552;29;20705;-70
2023/03/19 05:16:03;;;;;;;;;;;7.80;99.90;;;;;;4940893;29;19973;-71
2023/03/19 05:18:28;;;;;;;;;;;7.80;99.90;;;;;;4957419;29;19928;-71
2023/03/19 05:20:54;;;;;;;;;;;7.70;99.90;;;;;;4940388;29;20282;-71
2023/03/19 05:23:21;;;;;;;;;;;7.70;99.90;;;;;;4939564;29;19929;-70
2023/03/19 05:25:47;;;;;;;;;;;8.10;99.90;;;;;;4955889;29;20398;-70
2023/03/19 05:28:12;;;;;;;;;;;7.50;99.90;;;;;;4956755;29;19922;-70
2023/03/19 05:30:38;;;;;;;;;;;7.60;99.90;;;;;;4956573;29;20417;-70
2023/03/19 05:33:04;;;;;;;;;;;7.90;99.90;;;;;;4956434;29;19923;-70
2023/03/19 05:35:29;;;;;;;;;;;7.50;99.90;;;;;;4945930;29;19922;-70
2023/03/19 05:37:55;;;;;;;;;;;8.40;99.90;;;;;;4940081;29;19970;-70
2023/03/19 05:40:22;;;;;;;;;;;7.40;99.90;;;;;;4939732;29;19923;-70
2023/03/19 05:42:47;;;;;;;;;;;7.30;99.90;;;;;;4939728;29;20440;-70
2023/03/19 05:45:13;;;;;;;;;;;7.30;99.90;;;;;;4955893;29;20017;-70
2023/03/19 05:47:39;;;;;;;;;;;7.30;99.90;;;;;;4975644;28;19922;-70
2023/03/19 05:50:07;;;;;;;;;;;7.30;99.90;;;;;;4943122;29;19958;-70
2023/03/19 05:52:32;;;;;;;;;;;7.30;99.90;;;;;;4954208;29;19977;-70
2023/03/19 05:54:58;;;;;;;;;;;7.20;99.90;;;;;;4944700;29;19934;-70
2023/03/19 05:57:23;;;;;;;;;;;8.20;99.90;;;;;;4956216;29;19930;-70
2023/03/19 05:59:49;;;;;;;;;;;7.20;99.90;;;;;;4956981;29;19922;-70
2023/03/19 06:02:15;;;;;;;;;;;7.20;99.90;;;;;;4940452;29;20357;-70
2023/03/19 06:04:40;;;;;;;;;;;7.30;99.90;;;;;;4956762;29;19922;-70
2023/03/19 06:07:06;;;;;;;;;;;7.30;99.90;;;;;;4939232;29;19966;-70
2023/03/19 06:09:31;;;;;;;;;;;7.20;99.90;;;;;;4955708;28;19922;-70
2023/03/19 06:11:57;;;;;;;;;;;7.50;99.90;;;;;;4957593;29;19927;-70
2023/03/19 06:14:23;;;;;;;;;;;7.70;99.90;;;;;;4939406;29;20004;-69
2023/03/19 06:16:48;;;;;;;;;;;7.20;99.90;;;;;;4940132;29;19918;-70
2023/03/19 06:19:14;;;;;;;;;;;7.50;99.90;;;;;;4957150;29;19922;-70
2023/03/19 06:21:39;;;;;;;;;;;8.00;99.90;;;;;;4938825;29;19980;-70
2023/03/19 06:24:05;;;;;;;;;;;8.10;99.90;;;;;;4939791;29;19973;-70
2023/03/19 06:26:31;;;;;;;;;;;7.30;99.90;;;;;;4956805;29;19953;-70
2023/03/19 06:28:57;;;;;;;;;;;7.30;99.90;;;;;;4956513;29;19996;-70
2023/03/19 06:31:22;;;;;;;;;;;7.40;99.90;;;;;;4956481;29;19923;-70
2023/03/19 06:33:49;;;;;;;;;;;7.30;99.90;;;;;;4956375;29;20017;-70
2023/03/19 06:36:14;;;;;;;;;;;7.50;99.90;;;;;;4956724;29;19922;-70
2023/03/19 06:38:40;;;;;;;;;;;7.40;99.90;;;;;;4956832;29;20255;-70
2023/03/19 06:41:06;;;;;;;;;;;7.30;99.90;;;;;;4956653;28;19977;-70
2023/03/19 06:43:35;;;;;;;;;;;7.30;99.90;;;;;;4955064;28;20338;-70
2023/03/19 06:46:01;;;;;;;;;;;7.50;99.90;;;;;;4956857;29;19922;-70
2023/03/19 06:48:27;;;;;;;;;;;7.40;99.90;;;;;;4956078;29;19926;-70
2023/03/19 06:50:52;;;;;;;;;;;7.30;99.90;;;;;;4956617;29;19923;-70
2023/03/19 06:53:18;;;;;;;;;;;7.40;99.90;;;;;;4971390;28;19962;-70
2023/03/19 06:55:45;;;;;;;;;;;7.60;99.90;;;;;;4968560;28;20374;-70
2023/03/19 06:58:11;;;;;;;;;;;8.30;99.90;;;;;;4938671;29;19923;-70
2023/03/19 07:00:36;;;;;;;;;;;8.70;99.90;;;;;;4933800;29;19970;-69
2023/03/19 07:03:02;;;;;;;;;;;7.70;99.90;;;;;;4936095;29;20367;-71
2023/03/19 07:05:27;;;;;;;;;;;7.80;99.90;;;;;;4946130;28;19923;-69
2023/03/19 07:07:53;;;;;;;;;;;7.80;99.90;;;;;;4936560;29;20401;-69
2023/03/19 07:10:19;;;;;;;;;;;7.90;99.90;;;;;;4935618;29;19946;-69
2023/03/19 07:12:45;;;;;;;;;;;8.00;99.90;;;;;;4936514;29;20401;-69
2023/03/19 07:15:10;;;;;;;;;;;8.50;99.90;;;;;;4935155;29;19918;-69
2023/03/19 07:17:36;;;;;;;;;;;8.10;99.90;;;;;;4932881;29;19927;-69
2023/03/19 07:20:01;;;;;;;;;;;8.10;99.90;;;;;;4966489;28;20014;-69
2023/03/19 07:22:27;;;;;;;;;;;8.20;99.90;;;;;;4934143;29;20401;-70
2023/03/19 07:24:52;;;;;;;;;;;8.20;99.90;;;;;;4934442;29;19927;-70
2023/03/19 07:27:18;;;;;;;;;;;8.80;99.90;;;;;;4945436;29;19941;-71
2023/03/19 07:29:43;;;;;;;;;;;8.60;99.90;;;;;;4942702;29;20390;-71
2023/03/19 07:32:10;;;;;;;;;;;9.40;99.90;;;;;;4948306;28;20506;-73
2023/03/19 07:34:36;;;;;;;;;;;8.20;99.90;;;;;;4939318;29;19927;-70
2023/03/19 07:37:01;;;;;;;;;;;8.30;99.90;;;;;;4950238;29;19923;-70
2023/03/19 07:39:27;;;;;;;;;;;8.30;99.90;;;;;;4937449;29;19933;-72
2023/03/19 07:41:56;;;;;;;;;;;8.30;99.90;;;;;;4949076;28;19922;-70
2023/03/19 07:44:22;;;;;;;;;;;8.40;99.90;;;;;;4949309;28;19929;-69
2023/03/19 07:46:47;;;;;;;;;;;8.30;99.90;;;;;;4944089;28;20106;-70
2023/03/19 07:49:13;;;;;;;;;;;8.70;99.90;;;;;;4936988;29;20594;-70
2023/03/19 07:51:38;;;;;;;;;;;9.50;99.90;;;;;;4978702;28;19955;-66
2023/03/19 07:56:01;;;;;;;42.20;17.10;;;10.40;99.90;;;;;;5107836;27;20376;-70
2023/03/19 07:58:27;;;;;;;;;;;8.40;99.90;;;;;;5075544;28;20119;-71
2023/03/19 08:00:53;;;;;;;40.60;16.98;;;8.40;99.90;;;;;;5058859;28;19928;-71
2023/03/19 08:03:19;;;;;;;46.65;18.70;;;8.70;99.90;;;;;;5069562;28;20040;-70
2023/03/19 08:05:47;;;;;;;;;;;8.40;99.90;;;;;;5069520;28;20430;-69
2023/03/19 08:08:14;;;;;;;48.38;17.60;;;8.50;99.90;;;;;;5085335;28;19978;-70
2023/03/19 08:10:39;;;;;;;52.20;18.58;;;8.60;99.90;;;;;;5069655;28;20080;-73
2023/03/19 08:13:05;;;;;;;;;;;8.60;99.90;;;;;;5084781;28;20087;-72
2023/03/19 08:15:31;;;;;;;50.60;20.33;;;9.40;99.90;;;;;;5069199;28;19921;-73
2023/03/19 08:18:02;;;;;;;47.15;19.17;;;8.70;99.90;;;;;;5069477;28;20388;-71
2023/03/19 08:20:28;;;;;;;54.42;20.05;;;8.60;99.90;;;;;;5075477;28;20044;-73
2023/03/19 08:22:53;;;;;;;;;;;8.60;99.90;;;;;;5077106;28;20462;-70
2023/03/19 08:25:19;;;;;;;58.05;20.20;;;8.50;99.90;;;;;;5051405;28;19920;-69
2023/03/19 08:27:44;;;;;;;50.85;18.05;;;8.80;99.90;;;;;;5084287;28;20037;-69
2023/03/19 08:30:10;;;;;;;;;;;8.70;99.90;;;;;;5051505;28;20132;-68
2023/03/19 08:32:36;;;;;;;56.17;18.08;;;8.60;99.90;;;;;;5063608;28;19920;-70
2023/03/19 08:35:02;;;;;;;;;;;9.00;99.90;;;;;;5090548;28;20093;-73
2023/03/19 08:37:28;;;;;;;55.40;18.60;;;8.60;99.90;;;;;;5091416;28;19982;-76
2023/03/19 08:39:54;;;;;;;50.15;17.63;;;8.60;99.90;;;;;;5109487;28;20556;-69
2023/03/19 08:42:20;;;;;;;;;;;8.70;99.90;;;;;;5108668;28;20067;-70
2023/03/19 08:44:45;;;;;;;56.40;17.88;;;8.70;99.90;;;;;;5109643;28;19920;-72
2023/03/19 08:47:11;;;;;;;;;;;9.00;99.90;;;;;;5109879;28;20040;-74
2023/03/19 08:49:37;;;;;;;50.67;16.85;;;8.80;99.90;;;;;;5090314;28;19920;-73
2023/03/19 08:52:03;;;;;;;;;;;8.80;99.90;;;;;;5091579;28;20525;-73
2023/03/19 08:54:28;;;;;;;47.78;15.88;;;8.80;99.90;;;;;;5089960;28;20333;-71
2023/03/19 08:56:54;;;;;;;41.08;15.18;;;8.90;99.90;;;;;;5109111;28;20064;-72
2023/03/19 08:59:20;;;;;;;32.22;13.52;;;9.20;99.90;;;;;;5107308;28;20483;-70
2023/03/19 09:01:50;;;;;;;33.70;14.10;;;9.40;99.90;;;;;;5085680;28;20043;-70
2023/03/19 09:04:16;;;;;;;37.53;13.68;;;8.90;99.90;;;;;;5070570;28;20503;-70
2023/03/19 09:06:42;;;;;;;;;;;8.90;99.90;;;;;;5061275;28;20087;-70
2023/03/19 09:09:08;;;;;;;37.30;14.63;;;8.90;99.90;;;;;;5056306;28;20326;-68
2023/03/19 09:11:34;;;;;;;;;;;8.80;99.90;;;;;;5054201;28;20055;-69
2023/03/19 09:13:59;;;;;;;38.45;14.20;;;8.80;99.90;;;;;;5060158;28;19973;-70
2023/03/19 09:16:25;;;;;;;;;;;8.80;99.90;;;;;;5095050;28;20095;-72
2023/03/19 09:18:50;;;;;;;27.02;10.40;;;9.00;99.90;;;;;;5069548;28;19970;-77
2023/03/19 09:21:16;;;;;;;;;;;8.90;99.90;;;;;;5075480;28;20116;-70
2023/03/19 09:23:42;;;;;;;21.52;8.80;;;8.90;99.90;;;;;;5073805;28;20011;-69
2023/03/19 09:26:08;;;;;;;;;;;8.90;99.90;;;;;;5088560;28;20110;-69
2023/03/19 09:28:34;;;;;;;24.33;10.20;;;8.90;99.90;;;;;;5091679;28;19930;-69
2023/03/19 09:31:05;;;;;;;28.13;11.45;;;8.90;99.90;;;;;;5073566;28;20055;-69
2023/03/19 09:33:32;;;;;;;26.17;11.68;;;8.90;99.90;;;;;;5065996;28;20059;-69
2023/03/19 09:35:57;;;;;;;30.02;12.35;;;9.00;99.90;;;;;;5071895;28;20177;-69
2023/03/19 09:38:23;;;;;;;;;;;9.00;99.90;;;;;;5054164;28;20119;-69
2023/03/19 09:41:13;;;;;;;26.45;11.60;;;9.10;99.90;;;;;;5054831;28;19926;-69
2023/03/19 09:43:42;;;;;;;25.15;11.40;;;9.10;99.90;;;;;;5070838;28;20472;-69
2023/03/19 09:46:23;;;;;;;22.02;10.38;;;9.70;99.90;;;;;;5054478;28;20131;-70
2023/03/19 09:49:22;;;;;;;22.45;9.00;;;9.30;99.90;;;;;;5054520;28;20075;-70
2023/03/19 09:51:50;;;;;;;21.40;8.77;;;9.20;99.90;;;;;;5071820;28;20462;-70
2023/03/19 09:54:26;;;;;;;21.42;7.90;;;9.10;99.90;;;;;;5050865;28;20302;-70
2023/03/19 09:56:52;;;;;;;19.02;7.70;;;9.20;99.90;;;;;;5070537;28;20468;-69
2023/03/19 09:59:21;;;;;;;19.13;9.07;;;9.30;99.90;;;;;;5055312;28;20484;-69
2023/03/19 10:01:56;;;;;;;18.05;7.68;;;9.30;99.90;;;;;;5074230;28;20174;-70
2023/03/19 10:04:46;;;;;;;18.52;7.75;;;9.30;99.90;;;;;;5053615;28;20135;-70
2023/03/19 10:07:17;;;;;;;15.13;7.93;;;9.40;99.90;;;;;;5072809;28;20040;-70
2023/03/19 10:10:21;;;;;;;18.20;7.82;;;9.50;99.90;;;;;;5074273;28;20063;-70
2023/03/19 10:13:06;;;;;;;13.50;7.35;;;9.50;99.90;;;;;;5055411;28;20051;-69
2023/03/19 10:15:33;;;;;;;15.98;8.05;;;9.60;99.90;;;;;;5073759;28;20048;-69
2023/03/19 10:18:03;;;;;;;14.43;8.30;;;9.70;99.90;;;;;;5055414;28;20045;-69
2023/03/19 10:20:43;;;;;;;15.60;8.10;;;9.80;99.90;;;;;;5072816;28;20063;-69
2023/03/19 10:23:24;;;;;;;20.20;10.05;;;9.80;99.90;;;;;;5074204;28;20044;-69
2023/03/19 10:25:54;;;;;;;17.13;10.57;;;9.80;99.90;;;;;;5055368;28;20049;-69
2023/03/19 10:28:21;;;;;;;20.60;11.77;;;9.80;99.90;;;;;;5073490;28;20033;-69
2023/03/19 10:30:59;;;;;;;21.95;11.52;;;10.20;99.90;;;;;;5073445;28;20490;-69
2023/03/19 10:33:41;;;;;;;20.02;10.45;;;9.60;99.90;;;;;;5054969;28;20095;-69
2023/03/19 10:36:10;;;;;;;21.45;10.88;;;9.70;99.90;;;;;;5073754;28;20036;-69
2023/03/19 10:38:40;;;;;;;18.08;10.27;;;9.60;99.90;;;;;;5055620;28;20064;-69
2023/03/19 10:41:23;;;;;;;14.95;8.73;;;10.10;99.90;;;;;;5055865;28;20048;-70
2023/03/19 10:43:54;;;;;;;16.58;9.02;;;9.70;99.90;;;;;;5055804;28;20076;-69
2023/03/19 10:46:20;;;;;;;17.27;8.82;;;9.70;99.90;;;;;;5073341;28;20365;-69
2023/03/19 10:48:46;;;;;;;15.65;8.38;;;9.80;99.90;;;;;;5054585;28;20041;-69
2023/03/19 10:51:23;;;;;;;18.67;8.20;;;9.90;99.90;;;;;;5074424;28;20058;-69
2023/03/19 10:53:52;;;;;;;17.35;8.80;;;9.80;99.90;;;;;;5075062;28;20048;-70
2023/03/19 10:56:19;;;;;;;17.55;8.50;;;10.00;99.90;;;;;;5093081;28;20048;-69
2023/03/19 10:59:25;;;;;;;17.55;9.23;;;10.00;99.90;;;;;;5093572;28;20040;-69
2023/03/19 11:02:12;;;;;;;16.70;8.98;;;9.80;99.90;;;;;;5063547;28;20055;-69
2023/03/19 11:04:38;;;;;;;;;;;10.20;99.90;;;;;;5093318;28;20533;-69
2023/03/19 11:07:12;;;;;;;14.32;7.43;;;9.90;99.90;;;;;;5093213;28;19924;-69
2023/03/19 11:09:41;;;;;;;15.63;8.40;;;9.90;99.90;;;;;;5092196;28;20039;-69
2023/03/19 11:12:30;;;;;;;13.80;8.00;;;9.90;99.90;;;;;;5086232;28;20426;-69
2023/03/19 11:14:56;;;;;;;14.45;7.20;;;10.10;99.90;;;;;;5050928;28;20076;-69
2023/03/19 11:17:25;;;;;;;15.38;7.68;;;10.00;99.90;;;;;;5034679;28;20513;-69
2023/03/19 11:19:56;;;;;;;15.60;8.30;;;9.90;99.90;;;;;;5063638;28;20098;-69
2023/03/19 11:22:31;;;;;;;16.10;8.00;;;10.10;99.90;;;;;;5053653;28;20044;-69
2023/03/19 11:25:00;;;;;;;16.50;7.85;;;10.00;99.90;;;;;;5072813;28;20047;-69
2023/03/19 11:27:33;;;;;;;17.60;10.45;;;10.10;99.90;;;;;;5071938;28;20041;-69
2023/03/19 11:29:59;;;;;;;16.02;7.88;;;10.10;99.90;;;;;;5053868;28;20044;-70
2023/03/19 11:32:59;;;;;;;14.23;8.18;;;10.20;99.90;;;;;;5054507;28;20376;-69
2023/03/19 11:35:31;;;;;;;14.27;7.00;;;10.30;99.90;;;;;;5050940;28;20435;-70
2023/03/19 11:37:59;;;;;;;13.10;7.20;;;10.40;99.90;;;;;;5051734;28;20052;-69
2023/03/19 11:40:35;;;;;;;16.25;8.27;;;10.40;99.90;;;;;;5052548;28;20044;-69
2023/03/19 11:43:13;;;;;;;13.20;7.53;;;10.50;99.90;;;;;;5048502;28;20048;-69
2023/03/19 11:46:03;;;;;;;14.20;8.15;;;10.60;99.90;;;;;;5054368;28;20094;-69
2023/03/19 11:48:51;;;;;;;16.50;8.70;;;10.70;99.90;;;;;;5054363;28;20056;-70
2023/03/19 11:51:46;;;;;;;18.73;9.68;;;10.60;99.90;;;;;;5053712;28;20041;-70
2023/03/19 11:54:19;;;;;;;19.15;9.50;;;10.50;99.90;;;;;;5053891;28;20057;-70
2023/03/19 11:56:59;;;;;;;19.13;9.35;;;10.40;99.90;;;;;;5072446;28;20052;-70
2023/03/19 11:59:43;;;;;;;20.90;11.25;;;10.40;99.90;;;;;;5071476;28;20040;-70
2023/03/19 12:02:12;;;;;;;26.77;11.95;;;10.40;99.90;;;;;;5051379;28;20056;-70
2023/03/19 12:04:59;;;;;;;23.77;11.73;;;10.50;99.90;;;;;;5051305;28;20059;-70
2023/03/19 12:07:34;;;;;;;;;;;10.50;99.90;;;;;;5061425;28;20055;-70
2023/03/19 12:10:19;;;;;;;25.98;13.52;;;10.50;99.90;;;;;;5092470;28;20420;-70
2023/03/19 12:13:07;;;;;;;27.48;13.82;;;10.50;99.90;;;;;;5072995;28;20093;-70
2023/03/19 12:15:51;;;;;;;24.15;13.18;;;10.40;99.90;;;;;;5092384;28;20052;-70
2023/03/19 12:18:32;;;;;;;24.35;12.50;;;10.50;99.90;;;;;;5073765;28;20037;-70
2023/03/19 12:21:25;;;;;;;29.15;14.13;;;10.50;99.90;;;;;;5074427;28;20087;-70
2023/03/19 12:24:01;;;;;;;27.02;14.27;;;10.50;99.90;;;;;;5058773;28;20045;-70
2023/03/19 12:26:41;;;;;;;27.48;13.60;;;10.50;99.90;;;;;;5061884;28;20048;-69
2023/03/19 12:29:23;;;;;;;27.17;13.57;;;10.50;99.90;;;;;;5092525;28;20051;-69
2023/03/19 12:32:05;;;;;;;27.30;13.85;;;10.50;99.90;;;;;;5074210;28;20044;-69
2023/03/19 12:34:56;;;;;;;28.98;14.25;;;10.50;99.90;;;;;;5091383;28;20052;-69
2023/03/19 12:37:34;;;;;;;27.60;14.38;;;10.60;99.90;;;;;;5072738;28;20483;-69
2023/03/19 12:40:18;;;;;;;27.02;15.00;;;10.70;99.90;;;;;;5091657;28;20040;-69
2023/03/19 12:42:45;;;;;;;24.73;13.35;;;10.70;99.90;;;;;;5077813;28;20131;-69
2023/03/19 12:45:37;;;;;;;27.38;14.30;;;10.80;99.90;;;;;;5096224;28;20368;-69
2023/03/19 12:48:12;;;;;;;23.98;12.50;;;10.70;99.90;;;;;;5054092;28;20085;-69
2023/03/19 12:50:43;;;;;;;25.92;13.30;;;10.70;99.90;;;;;;5061390;28;20047;-69
2023/03/19 12:53:30;;;;;;;24.48;12.57;;;10.70;99.90;;;;;;5057682;28;20041;-69
2023/03/19 12:55:57;;;;;;;;;;;10.70;99.90;;;;;;5075437;28;20071;-69
2023/03/19 12:59:15;;;;;;;24.17;12.90;;;10.70;99.90;;;;;;5094460;28;19971;-69
2023/03/19 13:01:46;;;;;;;25.73;13.80;;;10.70;99.90;;;;;;5003685;28;20050;-69
2023/03/19 13:04:32;;;;;;;25.23;13.93;;;10.70;99.90;;;;;;5095726;28;20032;-70
2023/03/19 13:07:33;;;;;;;22.10;12.27;;;10.70;99.90;;;;;;5094762;28;20048;-70
2023/03/19 13:10:20;;;;;;;24.77;13.20;;;10.80;99.90;;;;;;5023401;28;20369;-70
2023/03/19 13:12:46;;;;;;;;;;;10.90;99.90;;;;;;5078057;28;20047;-70
2023/03/19 13:15:26;;;;;;;26.40;14.15;;;10.90;99.90;;;;;;5076617;28;19920;-70
2023/03/19 13:18:12;;;;;;;23.75;13.05;;;10.80;99.90;;;;;;5085082;28;20044;-70
2023/03/19 13:21:15;;;;;;;26.02;14.85;;;10.80;99.90;;;;;;5075046;28;20052;-70
2023/03/19 13:23:44;;;;;;;26.13;13.18;;;10.80;99.90;;;;;;5074098;28;20044;-70
2023/03/19 13:26:12;;;;;;;25.83;12.75;;;10.70;99.90;;;;;;5057077;28;20036;-70
2023/03/19 13:28:53;;;;;;;23.02;13.70;;;10.80;99.90;;;;;;5090507;28;20629;-70
2023/03/19 13:31:22;;;;;;;32.65;18.15;;;10.70;99.90;;;;;;5056726;28;20045;-70
2023/03/19 13:34:16;;;;;;;24.30;14.00;;;10.70;99.90;;;;;;5075001;28;20044;-70
2023/03/19 13:36:46;;;;;;;29.88;15.10;;;10.60;99.90;;;;;;5028330;28;20064;-70
2023/03/19 13:39:18;;;;;;;35.22;18.10;;;10.60;99.90;;;;;;5054838;28;20045;-69
2023/03/19 13:41:50;;;;;;;30.27;16.35;;;10.60;99.90;;;;;;5037883;28;20049;-70
2023/03/19 13:44:34;;;;;;;34.33;16.92;;;10.60;99.90;;;;;;5073730;28;20479;-69
2023/03/19 13:47:35;;;;;;;29.05;15.68;;;10.60;99.90;;;;;;5074561;28;20089;-69
2023/03/19 13:50:19;;;;;;;34.25;17.08;;;10.70;99.90;;;;;;5059181;28;20160;-70
2023/03/19 13:52:49;;;;;;;30.52;17.42;;;10.60;99.90;;;;;;5076128;28;20069;-70
2023/03/19 13:55:24;;;;;;;33.63;18.17;;;10.50;99.90;;;;;;5076287;28;20109;-69
2023/03/19 13:58:00;;;;;;;34.92;16.90;;;10.50;99.90;;;;;;5075707;28;20430;-69